createdAt,value
2023-09-23T00:01:44.588Z,17.21
2023-09-23T00:04:13.609Z,17.19
2023-09-23T00:06:43.480Z,17.22
2023-09-23T00:09:18.197Z,17.21
2023-09-23T00:11:47.159Z,17.23
2023-09-23T00:14:15.979Z,17.23
2023-09-23T00:16:46.487Z,17.22
2023-09-23T00:19:16.879Z,17.28
2023-09-23T00:21:46.676Z,17.29
2023-09-23T00:24:17.150Z,17.27
2023-09-23T00:26:49.782Z,17.26
2023-09-23T00:29:19.078Z,17.26
2023-09-23T00:31:48.369Z,17.21
2023-09-23T00:34:17.475Z,17.22
2023-09-23T00:36:46.540Z,17.22
2023-09-23T00:39:16.769Z,17.17
2023-09-23T00:41:45.759Z,17.16
2023-09-23T00:44:14.727Z,17.13
2023-09-23T00:46:46.565Z,17.09
2023-09-23T00:49:16.794Z,17.04
2023-09-23T00:51:45.615Z,17.04
2023-09-23T00:54:22.886Z,17.09
2023-09-23T00:56:52.042Z,17.07
2023-09-23T00:59:21.066Z,17.05
2023-09-23T01:01:53.202Z,17.04
2023-09-23T01:04:23.160Z,16.98
2023-09-23T01:06:52.182Z,16.95
2023-09-23T01:09:24.093Z,16.96
2023-09-23T01:11:53.126Z,16.95
2023-09-23T01:14:22.986Z,16.86
2023-09-23T01:16:53.595Z,16.88
2023-09-23T01:19:27.448Z,16.82
2023-09-23T01:21:57.500Z,16.84
2023-09-23T01:24:31.496Z,16.75
2023-09-23T01:27:00.336Z,16.69
2023-09-23T01:29:30.602Z,16.60
2023-09-23T01:32:21.763Z,16.56
2023-09-23T01:34:50.887Z,16.51
2023-09-23T01:37:21.231Z,16.44
2023-09-23T01:39:51.318Z,16.47
2023-09-23T01:42:21.051Z,16.38
2023-09-23T01:44:50.049Z,16.39
2023-09-23T01:47:23.225Z,16.33
2023-09-23T01:49:52.480Z,16.38
2023-09-23T01:52:21.188Z,16.30
2023-09-23T01:54:52.358Z,16.28
2023-09-23T01:57:21.191Z,16.25
2023-09-23T01:59:54.711Z,16.30
2023-09-23T02:02:28.416Z,16.25
2023-09-23T02:04:57.844Z,16.22
2023-09-23T02:07:28.310Z,16.21
2023-09-23T02:09:58.824Z,16.22
2023-09-23T02:12:27.891Z,16.20
2023-09-23T02:15:07.336Z,16.18
2023-09-23T02:17:37.673Z,16.13
2023-09-23T02:20:13.183Z,16.16
2023-09-23T02:22:43.167Z,16.11
2023-09-23T02:25:15.271Z,16.13
2023-09-23T02:27:45.677Z,16.05
2023-09-23T02:30:17.195Z,16.06
2023-09-23T02:32:56.047Z,16.02
2023-09-23T02:35:26.747Z,16.02
2023-09-23T02:37:56.073Z,16.00
2023-09-23T02:40:28.765Z,15.97
2023-09-23T02:43:01.116Z,15.96
2023-09-23T02:45:30.466Z,15.98
2023-09-23T02:48:00.215Z,15.96
2023-09-23T02:50:29.621Z,15.93
2023-09-23T02:53:00.890Z,15.93
2023-09-23T02:55:31.908Z,15.90
2023-09-23T02:58:01.049Z,15.88
2023-09-23T03:00:38.521Z,15.88
2023-09-23T03:03:20.949Z,15.81
2023-09-23T03:05:56.608Z,15.84
2023-09-23T03:08:31.551Z,15.82
2023-09-23T03:11:04.401Z,15.83
2023-09-23T03:13:41.400Z,15.81
2023-09-23T03:16:15.788Z,15.81
2023-09-23T03:19:11.326Z,15.77
2023-09-23T03:21:44.107Z,15.71
2023-09-23T03:24:13.220Z,15.65
2023-09-23T03:27:02.082Z,15.65
2023-09-23T03:29:34.025Z,15.65
2023-09-23T03:32:05.567Z,15.63
2023-09-23T03:34:35.729Z,15.66
2023-09-23T03:37:11.052Z,15.67
2023-09-23T03:39:44.110Z,15.67
2023-09-23T03:42:15.902Z,15.62
2023-09-23T03:44:44.653Z,15.62
2023-09-23T03:47:13.790Z,15.62
2023-09-23T03:49:42.961Z,15.62
2023-09-23T03:52:12.319Z,15.66
2023-09-23T03:54:45.106Z,15.67
2023-09-23T03:57:15.403Z,15.65
2023-09-23T03:59:51.462Z,15.67
2023-09-23T04:02:24.175Z,15.67
2023-09-23T04:04:55.900Z,15.70
2023-09-23T04:07:24.867Z,15.70
2023-09-23T04:09:54.591Z,15.67
2023-09-23T04:12:25.944Z,15.68
2023-09-23T04:14:55.151Z,15.71
2023-09-23T04:17:26.005Z,15.77
2023-09-23T04:19:56.260Z,15.80
2023-09-23T04:22:25.388Z,15.84
2023-09-23T04:24:54.963Z,15.84
2023-09-23T04:27:27.230Z,15.92
2023-09-23T04:29:57.425Z,16.00
2023-09-23T04:32:28.389Z,16.02
2023-09-23T04:35:06.489Z,16.07
2023-09-23T04:40:38.833Z,16.18
2023-09-23T04:43:14.577Z,16.21
2023-09-23T04:45:44.742Z,16.30
2023-09-23T04:48:26.641Z,16.32
2023-09-23T04:51:01.447Z,16.32
2023-09-23T04:53:30.724Z,16.37
2023-09-23T04:56:13.382Z,16.46
2023-09-23T04:58:46.686Z,16.49
2023-09-23T05:01:17.628Z,16.56
2023-09-23T05:03:46.819Z,16.63
2023-09-23T05:06:15.949Z,16.63
2023-09-23T05:08:48.366Z,16.70
2023-09-23T05:11:18.366Z,16.79
2023-09-23T05:13:48.581Z,16.86
2023-09-23T05:16:20.899Z,16.91
2023-09-23T05:18:57.092Z,16.93
2023-09-23T05:21:28.706Z,17.02
2023-09-23T05:23:57.709Z,17.07
2023-09-23T05:26:27.275Z,17.11
2023-09-23T05:28:57.470Z,17.13
2023-09-23T05:31:26.514Z,17.18
2023-09-23T05:33:55.225Z,17.24
2023-09-23T05:36:24.396Z,17.32
2023-09-23T05:38:53.238Z,17.37
2023-09-23T05:41:25.429Z,17.47
2023-09-23T05:43:54.745Z,17.49
2023-09-23T05:46:25.092Z,17.53
2023-09-23T05:48:53.940Z,17.60
2023-09-23T05:51:22.860Z,17.61
2023-09-23T05:53:51.664Z,17.72
2023-09-23T05:56:20.515Z,17.74
2023-09-23T05:58:51.545Z,17.82
2023-09-23T06:01:21.159Z,17.86
2023-09-23T06:03:52.014Z,17.87
2023-09-23T06:06:20.862Z,17.95
2023-09-23T06:08:51.743Z,17.96
2023-09-23T06:11:20.820Z,18.07
2023-09-23T06:13:51.694Z,18.16
2023-09-23T06:16:20.572Z,18.18
2023-09-23T06:18:50.936Z,18.26
2023-09-23T06:21:20.070Z,18.35
2023-09-23T06:23:49.278Z,18.37
2023-09-23T06:26:18.516Z,18.39
2023-09-23T06:28:47.329Z,18.43
2023-09-23T06:31:16.172Z,18.45
2023-09-23T06:33:45.775Z,18.49
2023-09-23T06:36:16.309Z,18.58
2023-09-23T06:38:45.256Z,18.60
2023-09-23T06:41:14.105Z,18.70
2023-09-23T06:43:42.979Z,18.75
2023-09-23T06:46:13.106Z,18.81
2023-09-23T06:48:42.560Z,18.84
2023-09-23T06:51:11.689Z,18.88
2023-09-23T06:53:43.383Z,18.93
2023-09-23T06:56:12.779Z,18.98
2023-09-23T06:58:41.471Z,19.01
2023-09-23T07:01:10.315Z,19.11
2023-09-23T07:03:39.117Z,19.18
2023-09-23T07:06:08.107Z,19.25
2023-09-23T07:08:36.957Z,19.23
2023-09-23T07:11:13.717Z,19.28
2023-09-23T07:13:42.859Z,19.35
2023-09-23T07:16:16.234Z,19.44
2023-09-23T07:18:47.637Z,19.42
2023-09-23T07:21:16.426Z,19.49
2023-09-23T07:23:46.269Z,19.57
2023-09-23T07:26:25.390Z,19.62
2023-09-23T07:28:54.195Z,19.62
2023-09-23T07:31:23.015Z,19.70
2023-09-23T07:33:51.876Z,19.78
2023-09-23T07:36:20.629Z,19.82
2023-09-23T07:38:49.345Z,19.84
2023-09-23T07:41:18.383Z,19.93
2023-09-23T07:43:50.096Z,19.93
2023-09-23T07:46:19.132Z,20.01
2023-09-23T07:48:47.851Z,20.00
2023-09-23T07:51:16.815Z,20.13
2023-09-23T07:53:46.438Z,20.14
2023-09-23T07:56:16.009Z,20.25
2023-09-23T07:58:44.875Z,20.26
2023-09-23T08:01:15.390Z,20.30
2023-09-23T08:03:44.965Z,20.46
2023-09-23T08:06:17.566Z,20.46
2023-09-23T08:08:47.584Z,20.52
2023-09-23T08:11:17.402Z,20.59
2023-09-23T08:13:46.408Z,20.68
2023-09-23T08:16:17.828Z,20.74
2023-09-23T08:18:46.576Z,20.77
2023-09-23T08:21:15.981Z,20.90
2023-09-23T08:23:45.480Z,20.98
2023-09-23T08:26:14.586Z,21.05
2023-09-23T08:28:46.426Z,21.12
2023-09-23T08:31:18.312Z,21.19
2023-09-23T08:33:47.392Z,21.29
2023-09-23T08:36:16.395Z,21.37
2023-09-23T08:38:45.314Z,21.43
2023-09-23T08:41:18.738Z,21.48
2023-09-23T08:43:50.870Z,21.55
2023-09-23T08:46:24.239Z,21.63
2023-09-23T08:48:53.985Z,21.72
2023-09-23T08:51:25.762Z,21.82
2023-09-23T08:53:56.348Z,21.86
2023-09-23T08:56:25.407Z,21.94
2023-09-23T08:58:57.535Z,22.01
2023-09-23T09:01:28.727Z,22.07
2023-09-23T09:03:57.727Z,22.17
2023-09-23T09:06:30.876Z,22.19
2023-09-23T09:09:00.956Z,22.31
2023-09-23T09:11:29.933Z,22.40
2023-09-23T09:13:59.370Z,22.50
2023-09-23T09:16:31.112Z,22.52
2023-09-23T09:18:59.900Z,22.55
2023-09-23T09:21:29.574Z,22.58
2023-09-23T09:23:58.322Z,22.64
2023-09-23T09:26:27.538Z,22.72
2023-09-23T09:28:56.506Z,22.82
2023-09-23T09:31:34.847Z,22.90
2023-09-23T09:34:07.708Z,22.96
2023-09-23T09:36:39.921Z,23.02
2023-09-23T09:39:09.688Z,23.08
2023-09-23T09:41:53.078Z,23.18
2023-09-23T09:44:24.412Z,23.16
2023-09-23T09:46:58.322Z,23.26
2023-09-23T09:49:28.616Z,23.32
2023-09-23T09:51:58.980Z,23.38
2023-09-23T09:54:30.555Z,23.45
2023-09-23T09:57:00.368Z,23.51
2023-09-23T09:59:34.059Z,23.67
2023-09-23T10:02:08.182Z,23.65
2023-09-23T10:04:37.591Z,23.69
2023-09-23T10:07:09.477Z,23.76
2023-09-23T10:09:39.888Z,23.85
2023-09-23T10:12:09.899Z,23.94
2023-09-23T10:14:40.331Z,23.97
2023-09-23T10:17:12.190Z,23.99
2023-09-23T10:19:43.722Z,24.06
2023-09-23T10:22:19.387Z,24.07
2023-09-23T10:25:01.549Z,24.16
2023-09-23T10:27:37.946Z,24.23
2023-09-23T10:30:08.707Z,24.32
2023-09-23T10:32:39.073Z,24.40
2023-09-23T10:35:08.449Z,24.43
2023-09-23T10:37:37.938Z,24.52
2023-09-23T10:40:13.571Z,24.62
2023-09-23T10:42:45.826Z,24.69
2023-09-23T10:45:18.335Z,24.70
2023-09-23T10:47:48.752Z,24.78
2023-09-23T10:50:17.775Z,24.82
2023-09-23T10:52:47.836Z,24.86
2023-09-23T10:55:16.935Z,24.88
2023-09-23T10:57:46.281Z,24.97
2023-09-23T11:00:18.644Z,25.04
2023-09-23T11:02:56.232Z,25.07
2023-09-23T11:05:25.877Z,25.17
2023-09-23T11:07:59.730Z,25.21
2023-09-23T11:10:30.251Z,25.23
2023-09-23T11:12:59.614Z,25.30
2023-09-23T11:15:29.122Z,25.35
2023-09-23T11:18:03.934Z,25.37
2023-09-23T11:20:34.595Z,25.48
2023-09-23T11:23:06.987Z,25.54
2023-09-23T11:25:39.761Z,25.56
2023-09-23T11:28:08.678Z,25.56
2023-09-23T11:30:37.831Z,25.70
2023-09-23T11:33:09.468Z,25.65
2023-09-23T11:35:38.452Z,25.70
2023-09-23T11:38:07.303Z,25.69
2023-09-23T11:40:36.558Z,25.72
2023-09-23T11:43:08.696Z,25.70
2023-09-23T11:45:37.737Z,25.73
2023-09-23T11:48:09.676Z,25.57
2023-09-23T11:50:39.133Z,25.48
2023-09-23T11:53:08.406Z,25.37
2023-09-23T11:55:37.184Z,25.37
2023-09-23T11:58:06.381Z,25.39
2023-09-23T12:00:35.944Z,25.52
2023-09-23T12:03:05.736Z,25.51
2023-09-23T12:05:36.011Z,25.46
2023-09-23T12:08:05.423Z,25.40
2023-09-23T12:10:34.224Z,25.30
2023-09-23T12:13:06.784Z,25.26
2023-09-23T12:15:36.333Z,25.22
2023-09-23T12:18:06.276Z,25.13
2023-09-23T12:20:36.585Z,25.13
2023-09-23T12:23:05.460Z,25.11
2023-09-23T12:25:34.305Z,25.09
2023-09-23T12:28:06.974Z,25.06
2023-09-23T12:30:36.021Z,25.08
2023-09-23T12:33:05.838Z,25.04
2023-09-23T12:35:36.216Z,25.10
2023-09-23T12:38:05.202Z,25.15
2023-09-23T12:40:34.576Z,25.19
2023-09-23T12:43:03.673Z,25.20
2023-09-23T12:45:32.691Z,25.21
2023-09-23T12:48:01.627Z,25.20
2023-09-23T12:50:30.503Z,25.30
2023-09-23T12:53:01.808Z,25.30
2023-09-23T12:55:30.663Z,25.29
2023-09-23T12:57:59.802Z,25.37
2023-09-23T13:00:28.719Z,25.43
2023-09-23T13:02:57.643Z,25.54
2023-09-23T13:05:26.655Z,25.80
2023-09-23T13:07:56.117Z,26.08
2023-09-23T13:10:26.351Z,26.22
2023-09-23T13:12:55.171Z,26.32
2023-09-23T13:15:23.999Z,26.35
2023-09-23T13:17:52.816Z,26.31
2023-09-23T13:20:22.358Z,26.17
2023-09-23T13:22:51.151Z,25.99
2023-09-23T13:25:20.682Z,25.86
2023-09-23T13:27:51.102Z,25.78
2023-09-23T13:30:20.117Z,25.55
2023-09-23T13:32:49.058Z,25.39
2023-09-23T13:35:18.692Z,25.26
2023-09-23T13:37:47.492Z,25.14
2023-09-23T13:40:16.849Z,25.02
2023-09-23T13:42:45.846Z,24.96
2023-09-23T13:45:15.977Z,24.92
2023-09-23T13:47:44.863Z,24.86
2023-09-23T13:50:13.751Z,24.84
2023-09-23T13:52:42.726Z,24.75
2023-09-23T13:55:12.231Z,24.82
2023-09-23T13:57:41.162Z,24.83
2023-09-23T14:00:12.097Z,24.75
2023-09-23T14:02:42.440Z,24.77
2023-09-23T14:05:12.224Z,24.73
2023-09-23T14:07:42.038Z,24.66
2023-09-23T14:10:21.421Z,24.64
2023-09-23T14:12:51.382Z,24.65
2023-09-23T14:15:20.831Z,24.57
2023-09-23T14:17:51.183Z,24.55
2023-09-23T14:20:20.107Z,24.51
2023-09-23T14:22:54.502Z,24.45
2023-09-23T14:25:24.438Z,24.45
2023-09-23T14:27:53.116Z,24.41
2023-09-23T14:30:22.355Z,24.34
2023-09-23T14:32:53.700Z,24.30
2023-09-23T14:35:22.727Z,24.26
2023-09-23T14:37:51.825Z,24.18
2023-09-23T14:40:20.580Z,24.22
2023-09-23T14:42:49.377Z,24.13
2023-09-23T14:45:18.640Z,24.10
2023-09-23T14:47:49.935Z,24.10
2023-09-23T14:50:21.417Z,23.97
2023-09-23T14:52:50.551Z,23.87
2023-09-23T14:55:20.123Z,23.82
2023-09-23T14:57:49.468Z,23.79
2023-09-23T15:00:18.799Z,23.71
2023-09-23T15:02:48.233Z,23.67
2023-09-23T15:05:17.585Z,23.69
2023-09-23T15:07:47.836Z,23.68
2023-09-23T15:10:16.630Z,23.66
2023-09-23T15:12:45.585Z,23.67
2023-09-23T15:15:15.666Z,23.63
2023-09-23T15:17:44.653Z,23.64
2023-09-23T15:20:15.450Z,23.59
2023-09-23T15:22:44.914Z,23.54
2023-09-23T15:25:16.201Z,23.54
2023-09-23T15:27:45.180Z,23.53
2023-09-23T15:30:17.102Z,23.52
2023-09-23T15:32:48.299Z,23.55
2023-09-23T15:35:19.718Z,23.43
2023-09-23T15:37:49.191Z,23.40
2023-09-23T15:40:19.908Z,23.41
2023-09-23T15:42:50.241Z,23.32
2023-09-23T15:45:19.162Z,23.28
2023-09-23T15:47:48.046Z,23.24
2023-09-23T15:50:17.218Z,23.20
2023-09-23T15:52:46.602Z,23.15
2023-09-23T15:55:16.874Z,23.10
2023-09-23T15:57:47.001Z,23.08
2023-09-23T16:00:17.110Z,22.97
2023-09-23T16:02:46.811Z,22.96
2023-09-23T16:05:15.844Z,22.93
2023-09-23T16:07:44.699Z,22.87
2023-09-23T16:10:13.626Z,22.86
2023-09-23T16:12:42.490Z,22.76
2023-09-23T16:15:12.805Z,22.71
2023-09-23T16:17:41.693Z,22.69
2023-09-23T16:20:11.307Z,22.66
2023-09-23T16:22:40.070Z,22.64
2023-09-23T16:25:09.868Z,22.65
2023-09-23T16:27:41.973Z,22.64
2023-09-23T16:30:13.796Z,22.65
2023-09-23T16:32:42.685Z,22.62
2023-09-23T16:35:12.136Z,22.63
2023-09-23T16:37:42.060Z,22.63
2023-09-23T16:40:12.609Z,22.61
2023-09-23T16:42:41.798Z,22.64
2023-09-23T16:45:13.007Z,22.66
2023-09-23T16:47:42.565Z,22.61
2023-09-23T16:50:13.792Z,22.64
2023-09-23T16:52:42.909Z,22.61
2023-09-23T16:55:11.959Z,22.63
2023-09-23T16:57:41.637Z,22.57
2023-09-23T17:00:18.310Z,22.57
2023-09-23T17:02:51.996Z,22.54
2023-09-23T17:05:21.185Z,22.55
2023-09-23T17:07:51.321Z,22.57
2023-09-23T17:10:20.598Z,22.53
2023-09-23T17:12:49.954Z,22.51
2023-09-23T17:15:20.922Z,22.44
2023-09-23T17:17:50.033Z,22.40
2023-09-23T17:20:19.054Z,22.36
2023-09-23T17:22:47.901Z,22.30
2023-09-23T17:25:18.075Z,22.25
2023-09-23T17:27:47.847Z,22.17
2023-09-23T17:30:17.440Z,22.18
2023-09-23T17:32:48.116Z,22.13
2023-09-23T17:35:18.216Z,22.08
2023-09-23T17:37:47.435Z,22.04
2023-09-23T17:40:16.921Z,22.04
2023-09-23T17:42:45.703Z,22.04
2023-09-23T17:45:14.545Z,22.04
2023-09-23T17:47:43.466Z,22.02
2023-09-23T17:50:15.046Z,22.07
2023-09-23T17:52:44.492Z,21.98
2023-09-23T17:55:13.641Z,22.01
2023-09-23T17:57:42.414Z,22.01
2023-09-23T18:00:15.660Z,22.01
2023-09-23T18:02:44.537Z,22.01
2023-09-23T18:05:15.086Z,21.92
2023-09-23T18:07:44.019Z,21.93
2023-09-23T18:10:13.398Z,21.91
2023-09-23T18:12:42.947Z,21.85
2023-09-23T18:15:14.146Z,21.88
2023-09-23T18:17:46.557Z,21.85
2023-09-23T18:20:18.187Z,21.84
2023-09-23T18:22:47.095Z,21.82
2023-09-23T18:25:16.499Z,21.79
2023-09-23T18:27:45.354Z,21.79
2023-09-23T18:30:16.035Z,21.78
2023-09-23T18:32:45.651Z,21.74
2023-09-23T18:35:19.637Z,21.79
2023-09-23T18:37:48.902Z,21.74
2023-09-23T18:40:17.689Z,21.77
2023-09-23T18:42:47.831Z,21.75
2023-09-23T18:45:31.448Z,21.67
2023-09-23T18:48:17.534Z,21.66
2023-09-23T18:50:52.368Z,21.65
2023-09-23T18:53:22.220Z,21.63
2023-09-23T18:55:51.441Z,21.61
2023-09-23T18:58:20.618Z,21.63
2023-09-23T19:00:50.856Z,21.61
2023-09-23T19:03:19.961Z,21.61
2023-09-23T19:05:56.966Z,21.60
2023-09-23T19:08:26.325Z,21.60
2023-09-23T19:10:55.251Z,21.56
2023-09-23T19:13:23.943Z,21.52
2023-09-23T19:15:52.731Z,21.54
2023-09-23T19:18:21.731Z,21.54
2023-09-23T19:20:51.152Z,21.50
2023-09-23T19:23:21.438Z,21.49
2023-09-23T19:25:54.059Z,21.53
2023-09-23T19:28:26.096Z,21.56
2023-09-23T19:30:57.764Z,21.54
2023-09-23T19:33:29.497Z,21.47
2023-09-23T19:35:58.253Z,21.53
2023-09-23T19:38:30.215Z,21.51
2023-09-23T19:40:59.028Z,21.52
2023-09-23T19:43:29.492Z,21.56
2023-09-23T19:45:58.557Z,21.50
2023-09-23T19:48:33.391Z,21.48
2023-09-23T19:51:04.445Z,21.45
2023-09-23T19:53:34.999Z,21.41
2023-09-23T19:56:03.919Z,21.42
2023-09-23T19:58:36.073Z,21.41
2023-09-23T20:01:06.242Z,21.41
2023-09-23T20:03:35.190Z,21.39
2023-09-23T20:06:06.385Z,21.35
2023-09-23T20:08:36.913Z,21.31
2023-09-23T20:11:07.312Z,21.32
2023-09-23T20:13:36.077Z,21.34
2023-09-23T20:16:05.123Z,21.32
2023-09-23T20:18:33.973Z,21.32
2023-09-23T20:21:04.749Z,21.28
2023-09-23T20:23:33.596Z,21.29
2023-09-23T20:26:04.030Z,21.21
2023-09-23T20:28:33.936Z,21.12
2023-09-23T20:31:04.063Z,21.10
2023-09-23T20:33:33.116Z,21.10
2023-09-23T20:36:02.691Z,21.12
2023-09-23T20:38:33.326Z,21.08
2023-09-23T20:41:04.264Z,21.11
2023-09-23T20:43:33.266Z,21.05
2023-09-23T20:46:02.288Z,21.07
2023-09-23T20:48:31.099Z,21.05
2023-09-23T20:51:00.420Z,21.00
2023-09-23T20:53:29.237Z,21.00
2023-09-23T20:55:58.032Z,20.98
2023-09-23T20:58:28.752Z,20.97
2023-09-23T21:00:57.486Z,20.98
2023-09-23T21:03:26.468Z,20.99
2023-09-23T21:05:55.460Z,21.01
2023-09-23T21:08:24.447Z,20.96
2023-09-23T21:10:53.624Z,20.93
2023-09-23T21:13:22.372Z,20.96
2023-09-23T21:16:01.389Z,21.01
2023-09-23T21:18:30.331Z,20.95
2023-09-23T21:21:00.582Z,20.82
2023-09-23T21:23:29.652Z,20.68
2023-09-23T21:25:58.835Z,20.65
2023-09-23T21:28:27.543Z,20.53
2023-09-23T21:31:02.299Z,20.43
2023-09-23T21:33:33.162Z,20.38
2023-09-23T21:36:03.450Z,20.27
2023-09-23T21:38:32.255Z,20.21
2023-09-23T21:41:01.190Z,20.17
2023-09-23T21:43:29.881Z,20.14
2023-09-23T21:45:58.968Z,20.17
2023-09-23T21:48:28.012Z,20.09
2023-09-23T21:51:00.312Z,20.00
2023-09-23T21:53:30.177Z,19.98
2023-09-23T21:55:59.575Z,19.96
2023-09-23T21:58:28.390Z,19.89
2023-09-23T22:01:00.936Z,19.82
2023-09-23T22:03:32.646Z,19.76
2023-09-23T22:06:06.733Z,19.66
2023-09-23T22:08:35.798Z,19.59
2023-09-23T22:11:05.081Z,19.60
2023-09-23T22:13:35.405Z,19.54
2023-09-23T22:16:09.550Z,19.47
2023-09-23T22:18:39.707Z,19.40
2023-09-23T22:21:09.894Z,19.38
2023-09-23T22:23:38.695Z,19.37
2023-09-23T22:26:16.284Z,19.32
2023-09-23T22:28:46.085Z,19.26
2023-09-23T22:31:28.625Z,19.23
2023-09-23T22:33:58.050Z,19.17
2023-09-23T22:36:28.450Z,19.23
2023-09-23T22:38:57.269Z,19.21
2023-09-23T22:41:29.531Z,19.19
2023-09-23T22:43:58.973Z,19.19
2023-09-23T22:46:28.342Z,19.11
2023-09-23T22:48:57.193Z,19.07
2023-09-23T22:51:27.389Z,19.07
2023-09-23T22:53:57.089Z,19.01
2023-09-23T22:56:26.349Z,18.94
2023-09-23T22:58:55.878Z,18.98
2023-09-23T23:01:26.334Z,18.99
2023-09-23T23:03:55.507Z,18.98
2023-09-23T23:06:24.435Z,18.99
2023-09-23T23:08:54.687Z,18.98
2023-09-23T23:11:25.278Z,18.96
2023-09-23T23:13:54.094Z,18.93
2023-09-23T23:16:23.067Z,18.99
2023-09-23T23:18:53.323Z,18.91
2023-09-23T23:21:22.539Z,18.94
2023-09-23T23:23:51.465Z,18.91
2023-09-23T23:26:23.180Z,18.90
2023-09-23T23:28:54.932Z,18.93
2023-09-23T23:31:23.809Z,18.92
2023-09-23T23:33:52.625Z,18.94
2023-09-23T23:36:22.619Z,18.93
2023-09-23T23:38:51.457Z,18.90
2023-09-23T23:41:21.579Z,18.87
2023-09-23T23:43:50.236Z,18.88
2023-09-23T23:46:20.852Z,18.82
2023-09-23T23:48:50.249Z,18.81
2023-09-23T23:51:24.214Z,18.84
2023-09-23T23:53:53.627Z,18.77
2023-09-23T23:56:26.235Z,18.73
2023-09-23T23:58:58.415Z,18.63
